Terminal Aerodrome Forecast
Issued by NWS

Home | Current Version | Previous Version | Text Only | Print | Product List | Glossary On
Versions: 1 2 3 4 5 6 7 8 9 10 11 12 13 14
000
FTUS45 KVEF 302058 AAA
TAFBIH
TAF AMD
KBIH 302058Z 3021/3118 36038G52KT 5SM BLDU BKN120
      TEMPO 3021/3024 2SM BLDU
     FM310300 36021G29KT P6SM SCT080 BKN100
     FM311100 34015G23KT P6SM SCT080 BKN100=

USA.gov is the U.S. government's official web portal to all federal, state and local government web resources and services.